메인 페이지
METAR-TAF:

METAR-TAF

공항 :

Philip Billard Municipal Airport

토피카, 캔자스, 미국

위도: 39-04-21N, 경도: 095-37-33W, 고도: 268m

현재 날씨관측

예보는 1 시간 4분 전, 01:53시(UTC)에 발표되었습니다.
무풍
온도 -1°C
습도 46%
기압 1026 hPa
시정: 16.1km
맑음

METAR: KTOP 270153Z AUTO 00000KT 10SM CLR M01/M11 A3031 RMK AO2 SLP274 T10061111

시각: 20:57 (02:57 UTC)

예보

예보는 3 시간 25분 전, 23:32시(UTC)에 발표되었습니다.
예보 대상 시간: 27일 00시부터 27일 24시까지 (UTC)
북북서12kt
시정: 10km
맑음
27일 0100시부터 (UTC)
4kt
시정: 10km
맑음
27일 1500시부터 (UTC)
남서10kt
시정: 10km
고도 25000ft 상공 구름 보통
27일 1900시부터 (UTC)
12kt
시정: 10km
고도 7000ft 상공 구름 많음

TAF: KTOP 262332Z 2700/2724 34012KT P6SM SKC FM270100 27004KT P6SM SKC FM271500 23010KT P6SM SCT250 FM271900 27012KT P6SM BKN070

4,000개 이상의 공항 관측 자료 및 예보 (METAR 및 TAF 보고).

지도상에서 검색 가능한 기상관측소가 노란 점과 빨간 점으로 표시되어 있습니다.

기상관측소 명을 보려면 표시 위로 마우스를 이동하세요.

날씨 관측과 예보를 보려면 클릭하세요.

지도 변경 : 확대하려면 엑스 표시가 있는 녹색 버튼, 축소하려면 빼기 표시가 있는 녹색 버튼, 다음 페이지의 지도를 보려면 녹색 화살표를 클릭하세요.


METAR-TAF: